createdAt,value
2018-09-20T00:00:05.226Z,41.5
2018-09-20T00:02:10.229Z,41.4
2018-09-20T00:04:05.990Z,41.4
2018-09-20T00:06:10.774Z,41.4
2018-09-20T00:08:08.070Z,41.4
2018-09-20T00:10:08.351Z,41.4
2018-09-20T00:12:05.081Z,41.4
2018-09-20T00:14:08.359Z,41.3
2018-09-20T00:16:05.089Z,41.3
2018-09-20T00:18:05.034Z,41.3
2018-09-20T00:20:05.763Z,41.4
2018-09-20T00:22:05.537Z,41.3
2018-09-20T00:24:05.329Z,41.3
2018-09-20T00:26:05.297Z,41.3
2018-09-20T00:28:06.016Z,41.3
2018-09-20T00:30:05.696Z,41.3
2018-09-20T00:32:05.385Z,41.1
2018-09-20T00:34:05.122Z,41.2
2018-09-20T00:36:08.312Z,41.1
2018-09-20T00:38:08.603Z,41.1
2018-09-20T00:40:05.318Z,41.2
2018-09-20T00:42:05.979Z,41.1
2018-09-20T00:44:05.920Z,41.2
2018-09-20T00:46:05.622Z,41.2
2018-09-20T00:48:05.317Z,41.3
2018-09-20T00:50:05.054Z,41.2
2018-09-20T00:52:05.752Z,41.2
2018-09-20T00:54:06.443Z,41.2
2018-09-20T00:56:05.460Z,41.2
2018-09-20T00:58:05.929Z,41.2
2018-09-20T01:00:05.655Z,41.2
2018-09-20T01:02:05.336Z,41.2
2018-09-20T01:04:05.036Z,41.2
2018-09-20T01:06:05.279Z,41.2
2018-09-20T01:08:05.986Z,41.2
2018-09-20T01:10:05.700Z,41.3
2018-09-20T01:12:05.342Z,41.3
2018-09-20T01:14:10.083Z,41.1
2018-09-20T01:16:05.369Z,41.1
2018-09-20T01:18:05.285Z,41.1
2018-09-20T01:20:05.990Z,41.1
2018-09-20T01:22:05.694Z,41.1
2018-09-20T01:24:05.365Z,41.2
2018-09-20T01:26:07.703Z,41.1
2018-09-20T01:28:05.412Z,41.2
2018-09-20T01:30:05.149Z,41.1
2018-09-20T01:32:05.850Z,41.1
2018-09-20T01:34:08.070Z,41.1
2018-09-20T01:36:05.379Z,41.1
2018-09-20T01:38:05.062Z,41.2
2018-09-20T01:40:05.778Z,41.2
2018-09-20T01:42:05.033Z,41.2
2018-09-20T01:44:05.775Z,41.2
2018-09-20T01:46:11.104Z,41
2018-09-20T01:48:05.837Z,41
2018-09-20T01:50:05.089Z,41.1
2018-09-20T01:52:05.862Z,41
2018-09-20T01:54:05.546Z,41
2018-09-20T01:56:05.385Z,41
2018-09-20T01:58:05.163Z,41.1
2018-09-20T02:00:05.873Z,41.1
2018-09-20T02:02:05.565Z,41.1
2018-09-20T02:04:05.273Z,41.1
2018-09-20T02:06:05.297Z,41.1
2018-09-20T02:08:05.970Z,41.1
2018-09-20T02:10:05.729Z,41.1
2018-09-20T02:12:08.032Z,41.1
2018-09-20T02:14:05.769Z,40.9
2018-09-20T02:16:13.037Z,40.9
2018-09-20T02:18:05.999Z,41
2018-09-20T02:20:08.246Z,41
2018-09-20T02:22:05.957Z,41
2018-09-20T02:24:10.719Z,41
2018-09-20T02:26:05.374Z,41
2018-09-20T02:28:05.095Z,41
2018-09-20T02:30:05.769Z,41
2018-09-20T02:32:05.424Z,41.1
2018-09-20T02:34:05.737Z,41.1
2018-09-20T02:36:05.964Z,41.1
2018-09-20T02:38:07.829Z,41.2
2018-09-20T02:40:05.142Z,41.1
2018-09-20T02:42:08.385Z,41.4
2018-09-20T02:44:05.072Z,41.1
2018-09-20T02:46:05.847Z,41.1
2018-09-20T02:48:05.558Z,41.2
2018-09-20T02:50:05.261Z,41.2
2018-09-20T02:52:05.714Z,41.2
2018-09-20T02:54:08.002Z,41.2
2018-09-20T02:56:05.745Z,41.2
2018-09-20T02:58:07.949Z,41.1
2018-09-20T03:00:05.638Z,41.1
2018-09-20T03:02:07.986Z,41.1
2018-09-20T03:04:05.277Z,41.1
2018-09-20T03:06:10.604Z,41.1
2018-09-20T03:08:07.878Z,41.1
2018-09-20T03:10:05.115Z,41.1
2018-09-20T03:12:05.368Z,41.1
2018-09-20T03:14:07.611Z,41.2
2018-09-20T03:16:05.476Z,41.1
2018-09-20T03:18:05.430Z,41.2
2018-09-20T03:20:05.156Z,41.2
2018-09-20T03:22:05.894Z,41.2
2018-09-20T03:24:05.621Z,41.1
2018-09-20T03:26:05.344Z,41.1
2018-09-20T03:28:05.214Z,41.2
2018-09-20T03:30:05.902Z,41.1
2018-09-20T03:32:05.613Z,41
2018-09-20T03:34:07.864Z,41.1
2018-09-20T03:36:05.650Z,41.1
2018-09-20T03:38:05.846Z,41.1
2018-09-20T03:40:05.677Z,41.1
2018-09-20T03:42:05.591Z,41.1
2018-09-20T03:44:10.341Z,41.1
2018-09-20T03:46:05.077Z,41.1
2018-09-20T03:48:07.869Z,41.1
2018-09-20T03:50:08.068Z,41.2
2018-09-20T03:52:05.785Z,41.2
2018-09-20T03:54:13.599Z,41.1
2018-09-20T03:56:15.380Z,41.1
2018-09-20T03:58:10.113Z,41.2
2018-09-20T04:00:05.835Z,41.2
2018-09-20T04:02:05.577Z,41.2
2018-09-20T04:04:05.387Z,41.3
2018-09-20T04:06:07.609Z,41.2
2018-09-20T04:08:05.316Z,41.2
2018-09-20T04:10:05.055Z,41.3
2018-09-20T04:12:05.787Z,41.3
2018-09-20T04:14:05.491Z,41.3
2018-09-20T04:16:05.212Z,41.2
2018-09-20T04:18:05.595Z,41.2
2018-09-20T04:20:07.893Z,41.2
2018-09-20T04:22:05.723Z,41.2
2018-09-20T04:24:05.413Z,41.2
2018-09-20T04:26:05.168Z,41.3
2018-09-20T04:28:05.909Z,41.3
2018-09-20T04:30:05.117Z,41.3
2018-09-20T04:32:08.349Z,41.3
2018-09-20T04:34:05.113Z,41.3
2018-09-20T04:36:05.809Z,41.3
2018-09-20T04:38:10.663Z,41.3
2018-09-20T04:40:10.634Z,41.9
2018-09-20T04:42:05.149Z,41.3
2018-09-20T04:44:05.839Z,41.3
2018-09-20T04:46:05.518Z,41.3
2018-09-20T04:48:05.171Z,41.3
2018-09-20T04:50:05.867Z,41.3
2018-09-20T04:52:13.217Z,41.4
2018-09-20T04:54:05.968Z,41.4
2018-09-20T04:56:05.610Z,41.2
2018-09-20T04:58:05.358Z,41.3
2018-09-20T05:00:05.224Z,41.5
2018-09-20T05:02:05.120Z,41.3
2018-09-20T05:04:05.829Z,41.3
2018-09-20T05:06:05.578Z,41.3
2018-09-20T05:08:10.412Z,41.3
2018-09-20T05:10:05.230Z,41.5
2018-09-20T05:12:05.937Z,41.3
2018-09-20T05:14:05.729Z,41.4
2018-09-20T05:16:05.389Z,41.4
2018-09-20T05:18:05.382Z,41.5
2018-09-20T05:20:12.796Z,41.5
2018-09-20T05:22:08.289Z,41.5
2018-09-20T05:24:05.980Z,41.3
2018-09-20T05:26:05.653Z,41.5
2018-09-20T05:28:07.934Z,41.5
2018-09-20T05:30:08.270Z,41.3
2018-09-20T05:32:05.944Z,41.3
2018-09-20T05:34:05.170Z,41.4
2018-09-20T05:36:05.918Z,41.4
2018-09-20T05:38:06.116Z,41.5
2018-09-20T05:40:05.824Z,41.4
2018-09-20T05:42:10.114Z,41.6
2018-09-20T05:44:05.877Z,41.4
2018-09-20T05:46:05.624Z,41.5
2018-09-20T05:48:05.302Z,41.4
2018-09-20T05:50:06.004Z,41.6
2018-09-20T05:52:08.434Z,41.5
2018-09-20T05:54:05.098Z,41.5
2018-09-20T05:56:05.382Z,41.6
2018-09-20T05:58:05.166Z,41.7
2018-09-20T06:00:05.883Z,41.7
2018-09-20T06:02:08.140Z,41.8
2018-09-20T06:04:05.879Z,41.8
2018-09-20T06:06:08.118Z,41.8
2018-09-20T06:08:05.826Z,41.8
2018-09-20T06:10:10.554Z,41.8
2018-09-20T06:12:05.328Z,41.8
2018-09-20T06:14:08.179Z,42
2018-09-20T06:16:05.932Z,41.8
2018-09-20T06:18:05.787Z,41.8
2018-09-20T06:20:05.446Z,42
2018-09-20T06:22:08.211Z,41.7
2018-09-20T06:24:08.049Z,41.8
2018-09-20T06:26:05.777Z,41.8
2018-09-20T06:28:10.567Z,41.8
2018-09-20T06:30:05.799Z,41.8
2018-09-20T06:32:05.500Z,41.9
2018-09-20T06:34:05.203Z,41.8
2018-09-20T06:36:08.401Z,41.9
2018-09-20T06:38:05.086Z,41.9
2018-09-20T06:40:05.817Z,41.9
2018-09-20T06:42:05.509Z,42
2018-09-20T06:44:13.404Z,42.1
2018-09-20T06:46:05.083Z,42.1
2018-09-20T06:48:08.371Z,42.1
2018-09-20T06:50:05.586Z,42.1
2018-09-20T06:52:10.421Z,42.1
2018-09-20T06:54:05.149Z,42.1
2018-09-20T06:56:05.415Z,42.1
2018-09-20T06:58:05.170Z,42
2018-09-20T07:00:05.941Z,42.2
2018-09-20T07:02:05.646Z,42.1
2018-09-20T07:04:05.354Z,42.1
2018-09-20T07:06:08.189Z,42.2
2018-09-20T07:08:05.394Z,42.2
2018-09-20T07:10:05.118Z,42.1
2018-09-20T07:12:06.005Z,42.2
2018-09-20T07:14:08.331Z,42.2
2018-09-20T07:16:05.104Z,42.2
2018-09-20T07:18:05.045Z,42.3
2018-09-20T07:20:05.791Z,42.2
2018-09-20T07:22:05.565Z,42.2
2018-09-20T07:24:12.827Z,42.4
2018-09-20T07:26:05.479Z,42.4
2018-09-20T07:28:12.781Z,42.5
2018-09-20T07:30:08.280Z,42.6
2018-09-20T07:32:05.994Z,42.5
2018-09-20T07:34:05.679Z,42.6
2018-09-20T07:36:05.346Z,42.6
2018-09-20T07:38:05.607Z,42.6
2018-09-20T07:40:05.368Z,42.8
2018-09-20T07:42:05.103Z,42.9
2018-09-20T07:44:08.394Z,42.9
2018-09-20T07:46:05.132Z,43
2018-09-20T07:48:05.922Z,43
2018-09-20T07:50:05.572Z,43
2018-09-20T07:52:05.283Z,43
2018-09-20T07:54:06.039Z,43
2018-09-20T07:56:08.230Z,43
2018-09-20T07:58:06.019Z,43
2018-09-20T08:00:08.288Z,43
2018-09-20T08:02:06.397Z,43
2018-09-20T08:04:05.671Z,43
2018-09-20T08:06:07.893Z,43.2
2018-09-20T08:08:05.603Z,43.2
2018-09-20T08:10:05.316Z,43.2
2018-09-20T08:12:05.059Z,43.1
2018-09-20T08:14:05.779Z,43.3
2018-09-20T08:16:05.875Z,43
2018-09-20T08:18:08.694Z,43.2
2018-09-20T08:20:07.948Z,43.4
2018-09-20T08:22:05.193Z,43.2
2018-09-20T08:24:05.934Z,43.1
2018-09-20T08:26:05.643Z,43.2
2018-09-20T08:28:05.867Z,43.5
2018-09-20T08:30:05.543Z,43.6
2018-09-20T08:32:05.218Z,44.9
2018-09-20T08:34:05.508Z,44.9
2018-09-20T08:36:05.830Z,44.8
2018-09-20T08:38:06.073Z,45
2018-09-20T08:40:05.817Z,44.5
2018-09-20T08:42:08.213Z,44.9
2018-09-20T08:44:05.145Z,44.9
2018-09-20T08:46:10.952Z,44.9
2018-09-20T08:48:08.181Z,45.1
2018-09-20T08:50:05.924Z,45.1
2018-09-20T08:52:05.605Z,45.3
2018-09-20T08:54:05.298Z,45.1
2018-09-20T08:56:05.544Z,45
2018-09-20T08:58:05.938Z,45.2
2018-09-20T09:00:05.203Z,45.4
2018-09-20T09:02:05.474Z,45.1
2018-09-20T09:04:05.186Z,45.3
2018-09-20T09:06:05.873Z,45.6
2018-09-20T09:08:05.598Z,45.5
2018-09-20T09:10:05.276Z,45.5
2018-09-20T09:12:06.234Z,45.3
2018-09-20T09:14:07.552Z,45.4
2018-09-20T09:16:05.287Z,45.4
2018-09-20T09:18:08.048Z,45.1
2018-09-20T09:20:05.694Z,45
2018-09-20T09:22:09.189Z,44.9
2018-09-20T09:24:05.386Z,44.7
2018-09-20T09:26:05.107Z,44.5
2018-09-20T09:28:05.881Z,44.7
2018-09-20T09:30:05.610Z,44.5
2018-09-20T09:32:05.296Z,44.1
2018-09-20T09:34:06.065Z,44.2
2018-09-20T09:36:06.026Z,44.2
2018-09-20T09:38:05.992Z,43.9
2018-09-20T09:40:05.426Z,43.7
2018-09-20T09:42:05.567Z,44.1
2018-09-20T09:44:05.624Z,44
2018-09-20T09:46:05.525Z,43.8
2018-09-20T09:48:07.905Z,43.1
2018-09-20T09:50:05.778Z,43.1
2018-09-20T09:52:15.653Z,43.4
2018-09-20T09:54:05.418Z,43.4
2018-09-20T09:56:07.723Z,43.3
2018-09-20T09:58:06.244Z,43.1
2018-09-20T10:00:08.421Z,42.7
2018-09-20T10:02:05.635Z,42.8
2018-09-20T10:04:10.604Z,42.9
2018-09-20T10:06:05.730Z,42.9
2018-09-20T10:08:08.204Z,43.1
2018-09-20T10:10:05.182Z,42.9
2018-09-20T10:12:08.449Z,42.9
2018-09-20T10:14:05.921Z,42.9
2018-09-20T10:16:06.644Z,43
2018-09-20T10:18:05.514Z,43.1
2018-09-20T10:20:05.935Z,43.1
2018-09-20T10:22:06.073Z,43.2
2018-09-20T10:24:05.224Z,43.2
2018-09-20T10:26:05.135Z,43.3
2018-09-20T10:28:08.521Z,43.5
2018-09-20T10:30:10.188Z,43.4
2018-09-20T10:32:05.919Z,43.4
2018-09-20T10:34:08.533Z,43.4
2018-09-20T10:36:05.616Z,43.4
2018-09-20T10:38:05.841Z,43.4
2018-09-20T10:40:05.517Z,43.4
2018-09-20T10:42:05.180Z,43.6
2018-09-20T10:44:05.929Z,43.6
2018-09-20T10:46:08.444Z,43.6
2018-09-20T10:48:07.653Z,43.5
2018-09-20T10:50:05.429Z,43.5
2018-09-20T10:52:05.168Z,43.5
2018-09-20T10:54:05.402Z,43.4
2018-09-20T10:56:07.740Z,43.6
2018-09-20T10:58:08.080Z,43.5
2018-09-20T11:00:05.378Z,43.5
2018-09-20T11:02:05.068Z,43.7
2018-09-20T11:04:05.790Z,44.8
2018-09-20T11:06:05.959Z,45.2
2018-09-20T11:08:05.643Z,45.6
2018-09-20T11:10:05.754Z,46.5
2018-09-20T11:12:15.535Z,47.6
2018-09-20T11:14:05.171Z,47.6
2018-09-20T11:16:08.480Z,48
2018-09-20T11:18:07.888Z,47.5
2018-09-20T11:20:05.640Z,47.4
2018-09-20T11:22:05.404Z,46.9
2018-09-20T11:24:05.188Z,46.4
2018-09-20T11:26:05.478Z,46.3
2018-09-20T11:28:05.202Z,45.9
2018-09-20T11:30:05.466Z,45.8
2018-09-20T11:32:05.219Z,45.8
2018-09-20T11:34:06.006Z,45.5
2018-09-20T11:36:08.274Z,45.5
2018-09-20T11:38:05.075Z,45.5
2018-09-20T11:40:05.899Z,45.6
2018-09-20T11:42:05.742Z,45.5
2018-09-20T11:44:07.984Z,45.8
2018-09-20T11:46:05.645Z,45.6
2018-09-20T11:48:05.407Z,45.4
2018-09-20T11:50:07.672Z,45.5
2018-09-20T11:52:05.406Z,45.4
2018-09-20T11:54:05.078Z,45.3
2018-09-20T11:56:05.826Z,45.3
2018-09-20T11:58:05.140Z,45.3
2018-09-20T12:00:05.970Z,45.3
2018-09-20T12:02:08.167Z,45.4
2018-09-20T12:04:05.870Z,45.3
2018-09-20T12:06:08.101Z,45
2018-09-20T12:08:05.789Z,45
2018-09-20T12:10:05.544Z,44.9
2018-09-20T12:12:05.263Z,45
2018-09-20T12:14:13.754Z,44.7
2018-09-20T12:16:05.483Z,44.8
2018-09-20T12:18:05.360Z,44.9
2018-09-20T12:20:07.939Z,44.9
2018-09-20T12:22:05.315Z,44.9
2018-09-20T12:24:05.574Z,44.7
2018-09-20T12:26:05.311Z,44.6
2018-09-20T12:28:06.123Z,44.7
2018-09-20T12:30:05.798Z,44.6
2018-09-20T12:32:05.593Z,44.7
2018-09-20T12:34:05.427Z,44.7
2018-09-20T12:36:05.404Z,44.8
2018-09-20T12:38:05.249Z,44.4
2018-09-20T12:40:05.213Z,44.6
2018-09-20T12:42:05.935Z,44.6
2018-09-20T12:44:05.634Z,44.5
2018-09-20T12:46:05.426Z,44.5
2018-09-20T12:48:05.231Z,44.4
2018-09-20T12:50:05.119Z,44.7
2018-09-20T12:52:06.087Z,44.4
2018-09-20T12:54:05.754Z,44.5
2018-09-20T12:56:06.459Z,44.5
2018-09-20T12:58:05.400Z,44.5
2018-09-20T13:00:05.316Z,44.4
2018-09-20T13:02:05.372Z,44.5
2018-09-20T13:04:07.829Z,44.6
2018-09-20T13:06:15.684Z,44.3
2018-09-20T13:08:05.463Z,44.3
2018-09-20T13:10:05.299Z,44.4
2018-09-20T13:12:07.545Z,44.6
2018-09-20T13:14:08.266Z,44.6
2018-09-20T13:16:05.976Z,44.6
2018-09-20T13:18:07.573Z,44.7
2018-09-20T13:20:05.827Z,44.6
2018-09-20T13:22:05.167Z,44.6
2018-09-20T13:24:05.432Z,44.6
2018-09-20T13:26:07.665Z,44.6
2018-09-20T13:28:05.376Z,44.6
2018-09-20T13:30:05.011Z,44.6
2018-09-20T13:32:05.680Z,44.7
2018-09-20T13:34:05.450Z,44.6
2018-09-20T13:36:05.204Z,44.6
2018-09-20T13:38:07.642Z,44.6
2018-09-20T13:40:05.345Z,44.6
2018-09-20T13:42:07.531Z,44.7
2018-09-20T13:44:07.746Z,44.6
2018-09-20T13:46:08.084Z,44.7
2018-09-20T13:48:05.823Z,44.5
2018-09-20T13:50:05.530Z,44.7
2018-09-20T13:52:08.481Z,44.6
2018-09-20T13:54:05.159Z,44.6
2018-09-20T13:56:05.962Z,44.6
2018-09-20T13:58:05.653Z,44.5
2018-09-20T14:00:05.347Z,44.5
2018-09-20T14:02:05.088Z,44.6
2018-09-20T14:04:08.579Z,44.6
2018-09-20T14:06:05.376Z,44.5
2018-09-20T14:08:05.070Z,44.6
2018-09-20T14:10:05.336Z,44.6
2018-09-20T14:12:05.000Z,44.7
2018-09-20T14:14:10.735Z,44.6
2018-09-20T14:16:06.019Z,44.8
2018-09-20T14:18:05.935Z,44.7
2018-09-20T14:20:05.639Z,44.7
2018-09-20T14:22:05.456Z,44.7
2018-09-20T14:24:05.188Z,44.7
2018-09-20T14:26:05.891Z,44.7
2018-09-20T14:28:05.592Z,44.7
2018-09-20T14:30:12.899Z,44.7
2018-09-20T14:32:05.776Z,44.7
2018-09-20T14:34:08.170Z,44.8
2018-09-20T14:36:05.883Z,44.8
2018-09-20T14:38:05.176Z,44.8
2018-09-20T14:40:13.011Z,44.7
2018-09-20T14:42:05.794Z,44.9
2018-09-20T14:44:05.111Z,44.9
2018-09-20T14:46:05.907Z,45
2018-09-20T14:48:08.197Z,45.3
2018-09-20T14:50:08.557Z,45.2
2018-09-20T14:52:05.359Z,45.2
2018-09-20T14:54:05.079Z,45.4
2018-09-20T14:56:06.212Z,45.3
2018-09-20T14:58:05.338Z,45.3
2018-09-20T15:00:08.202Z,45.5
2018-09-20T15:02:05.171Z,45.5
2018-09-20T15:04:05.875Z,45.5
2018-09-20T15:06:05.609Z,45.5
2018-09-20T15:08:05.531Z,45.5
2018-09-20T15:10:10.571Z,45.5
2018-09-20T15:12:05.226Z,45.5
2018-09-20T15:14:05.995Z,45.5
2018-09-20T15:16:05.760Z,45.7
2018-09-20T15:18:05.614Z,45.7
2018-09-20T15:20:05.968Z,45.7
2018-09-20T15:22:05.811Z,45.7
2018-09-20T15:24:05.541Z,45.7
2018-09-20T15:26:07.734Z,45.7
2018-09-20T15:28:05.418Z,45.8
2018-09-20T15:30:05.648Z,45.9
2018-09-20T15:32:05.495Z,45.7
2018-09-20T15:34:05.217Z,45.9
2018-09-20T15:36:06.015Z,45.8
2018-09-20T15:38:05.869Z,45.8
2018-09-20T15:40:08.157Z,45.8
2018-09-20T15:42:05.877Z,45.9
2018-09-20T15:44:05.598Z,45.8
2018-09-20T15:46:05.349Z,45.9
2018-09-20T15:48:07.557Z,46
2018-09-20T15:50:13.359Z,45.9
2018-09-20T15:52:05.081Z,45.9
2018-09-20T15:54:05.785Z,46
2018-09-20T15:56:05.126Z,46
2018-09-20T15:58:06.016Z,45.8
2018-09-20T16:00:06.073Z,46.1
2018-09-20T16:02:08.312Z,45.9
2018-09-20T16:04:08.592Z,45.9
2018-09-20T16:06:05.497Z,45.9
2018-09-20T16:08:05.713Z,46
2018-09-20T16:10:05.425Z,46
2018-09-20T16:12:05.210Z,46
2018-09-20T16:14:05.950Z,46.1
2018-09-20T16:16:05.649Z,46.1
2018-09-20T16:18:06.533Z,46
2018-09-20T16:20:05.428Z,46
2018-09-20T16:22:06.683Z,46.1
2018-09-20T16:24:10.983Z,46.2
2018-09-20T16:26:10.748Z,46
2018-09-20T16:28:06.224Z,46
2018-09-20T16:30:05.167Z,46
2018-09-20T16:32:05.477Z,46.1
2018-09-20T16:34:05.217Z,45.9
2018-09-20T16:36:05.926Z,46.1
2018-09-20T16:38:05.616Z,46.4
2018-09-20T16:40:10.468Z,46.3
2018-09-20T16:42:05.180Z,46.4
2018-09-20T16:44:13.479Z,46.3
2018-09-20T16:46:05.210Z,46.4
2018-09-20T16:48:05.908Z,46.6
2018-09-20T16:50:08.166Z,46.7
2018-09-20T16:52:08.625Z,47
2018-09-20T16:54:07.905Z,47.1
2018-09-20T16:56:05.201Z,47.1
2018-09-20T16:58:05.965Z,47.3
2018-09-20T17:00:15.799Z,47.4
2018-09-20T17:02:05.929Z,47.4
2018-09-20T17:04:10.291Z,47.5
2018-09-20T17:06:08.481Z,47.8
2018-09-20T17:08:10.287Z,47.6
2018-09-20T17:10:05.982Z,47.6
2018-09-20T17:12:05.172Z,47.7
2018-09-20T17:14:08.634Z,47.9
2018-09-20T17:16:05.100Z,47.8
2018-09-20T17:18:05.211Z,47.8
2018-09-20T17:20:08.597Z,48
2018-09-20T17:22:05.589Z,48
2018-09-20T17:24:07.904Z,48.1
2018-09-20T17:26:05.796Z,48.1
2018-09-20T17:28:05.604Z,48.1
2018-09-20T17:30:05.528Z,48.1
2018-09-20T17:32:05.203Z,48.1
2018-09-20T17:34:08.467Z,48.3
2018-09-20T17:36:05.173Z,48.3
2018-09-20T17:38:05.876Z,48.4
2018-09-20T17:40:07.895Z,48.3
2018-09-20T17:42:05.662Z,48.5
2018-09-20T17:44:05.449Z,48.5
2018-09-20T17:46:05.428Z,48.9
2018-09-20T17:48:05.135Z,48.7
2018-09-20T17:50:05.862Z,48.5
2018-09-20T17:52:05.547Z,48.5
2018-09-20T17:54:05.529Z,48.8
2018-09-20T17:56:05.715Z,48.7
2018-09-20T17:58:06.488Z,48.7
2018-09-20T18:00:07.695Z,48.8
2018-09-20T18:02:08.460Z,48.8
2018-09-20T18:04:05.185Z,48.8
2018-09-20T18:06:05.846Z,48.8
2018-09-20T18:08:08.113Z,48.8
2018-09-20T18:10:05.805Z,48.7
2018-09-20T18:12:05.580Z,48.8
2018-09-20T18:14:05.292Z,48.7
2018-09-20T18:16:05.528Z,48.8
2018-09-20T18:18:13.216Z,48.8
2018-09-20T18:20:07.824Z,48.7
2018-09-20T18:22:12.649Z,48.8
2018-09-20T18:24:08.432Z,48.8
2018-09-20T18:26:05.187Z,48.8
2018-09-20T18:28:05.947Z,48.8
2018-09-20T18:30:07.611Z,48.7
2018-09-20T18:32:05.543Z,48.7
2018-09-20T18:34:05.565Z,48.7
2018-09-20T18:36:07.925Z,48.7
2018-09-20T18:38:05.736Z,48.7
2018-09-20T18:40:06.011Z,48.7
2018-09-20T18:42:05.703Z,48.7
2018-09-20T18:44:05.459Z,48.7
2018-09-20T18:46:12.969Z,48.7
2018-09-20T18:48:05.639Z,48.7
2018-09-20T18:50:08.218Z,48.7
2018-09-20T18:52:05.184Z,48.7
2018-09-20T18:54:05.938Z,48.7
2018-09-20T18:56:08.208Z,48.7
2018-09-20T18:58:08.666Z,48.7
2018-09-20T19:00:07.937Z,48.7
2018-09-20T19:02:05.874Z,48.7
2018-09-20T19:04:12.921Z,48.5
2018-09-20T19:06:05.640Z,48.5
2018-09-20T19:08:10.418Z,48.7
2018-09-20T19:10:07.693Z,48.7
2018-09-20T19:12:08.111Z,48.5
2018-09-20T19:14:05.802Z,48.5
2018-09-20T19:16:05.630Z,48.5
2018-09-20T19:18:05.629Z,48.6
2018-09-20T19:20:05.342Z,48.8
2018-09-20T19:22:05.571Z,48.7
2018-09-20T19:24:06.281Z,48.9
2018-09-20T19:26:05.985Z,48.7
2018-09-20T19:28:05.893Z,48.8
2018-09-20T19:30:05.162Z,48.8
2018-09-20T19:32:05.628Z,48.6
2018-09-20T19:34:05.795Z,48.7
2018-09-20T19:36:08.076Z,48.6
2018-09-20T19:38:05.839Z,48.6
2018-09-20T19:40:05.781Z,48.6
2018-09-20T19:42:05.564Z,48.5
2018-09-20T19:44:05.318Z,48.6
2018-09-20T19:46:07.551Z,48.6
2018-09-20T19:48:08.483Z,48.6
2018-09-20T19:50:05.239Z,48.6
2018-09-20T19:52:07.956Z,48.7
2018-09-20T19:54:05.085Z,48.7
2018-09-20T19:56:05.790Z,48.7
2018-09-20T19:58:05.588Z,48.7
2018-09-20T20:00:10.439Z,48.7
2018-09-20T20:02:07.701Z,48.6
2018-09-20T20:04:05.475Z,48.6
2018-09-20T20:06:05.183Z,48.4
2018-09-20T20:08:05.911Z,48.6
2018-09-20T20:10:05.723Z,48.5
2018-09-20T20:12:10.629Z,48.7
2018-09-20T20:14:06.127Z,48.6
2018-09-20T20:16:05.457Z,48.4
2018-09-20T20:18:05.496Z,48.6
2018-09-20T20:20:08.241Z,48.5
2018-09-20T20:22:06.937Z,48.5
2018-09-20T20:24:08.333Z,48.6
2018-09-20T20:26:05.588Z,48.7
2018-09-20T20:28:05.623Z,48.6
2018-09-20T20:30:07.895Z,48.6
2018-09-20T20:32:15.243Z,48.5
2018-09-20T20:34:06.704Z,48.5
2018-09-20T20:36:07.949Z,48.6
2018-09-20T20:38:05.857Z,48.6
2018-09-20T20:40:05.627Z,48.5
2018-09-20T20:42:05.356Z,48.4
2018-09-20T20:44:53.410Z,48.4
2018-09-20T20:46:07.815Z,48.5
2018-09-20T20:48:50.600Z,48.4
2018-09-20T20:50:37.546Z,48.3
2018-09-20T20:52:05.492Z,48.4
2018-09-20T20:54:05.201Z,48.5
2018-09-20T20:56:05.907Z,48.5
2018-09-20T20:58:09.241Z,48.5
2018-09-20T21:00:08.093Z,48.1
2018-09-20T21:02:05.317Z,48.1
2018-09-20T21:04:07.568Z,47
2018-09-20T21:06:05.291Z,47
2018-09-20T21:08:05.087Z,46.3
2018-09-20T21:10:05.850Z,46.9
2018-09-20T21:12:05.559Z,46.4
2018-09-20T21:14:05.322Z,46.3
2018-09-20T21:16:08.485Z,45.6
2018-09-20T21:18:10.695Z,45.1
2018-09-20T21:20:05.655Z,45
2018-09-20T21:22:09.432Z,45
2018-09-20T21:24:05.623Z,44.7
2018-09-20T21:26:05.468Z,44.6
2018-09-20T21:28:05.229Z,44.6
2018-09-20T21:30:05.900Z,44.7
2018-09-20T21:32:05.573Z,44.5
2018-09-20T21:34:08.807Z,44.2
2018-09-20T21:36:08.124Z,44.1
2018-09-20T21:38:05.912Z,44.1
2018-09-20T21:40:05.169Z,44.1
2018-09-20T21:42:05.953Z,44.1
2018-09-20T21:44:05.671Z,44
2018-09-20T21:46:07.848Z,43.8
2018-09-20T21:48:05.708Z,43.7
2018-09-20T21:50:05.962Z,43.7
2018-09-20T21:52:05.259Z,43.6
2018-09-20T21:54:07.697Z,43.6
2018-09-20T21:56:05.396Z,43.6
2018-09-20T21:58:05.129Z,43.4
2018-09-20T22:00:05.831Z,43.5
2018-09-20T22:02:05.101Z,43.5
2018-09-20T22:04:05.800Z,43.6
2018-09-20T22:06:11.019Z,43.6
2018-09-20T22:08:05.769Z,43.6
2018-09-20T22:10:10.506Z,43.4
2018-09-20T22:12:07.970Z,43.4
2018-09-20T22:14:05.275Z,43.6
2018-09-20T22:16:05.952Z,43.4
2018-09-20T22:18:05.852Z,43.6
2018-09-20T22:20:05.585Z,43.6
2018-09-20T22:22:05.489Z,43.5
2018-09-20T22:24:07.707Z,43.6
2018-09-20T22:26:07.961Z,43.6
2018-09-20T22:28:05.302Z,43.6
2018-09-20T22:30:05.964Z,43.5
2018-09-20T22:32:08.201Z,43.3
2018-09-20T22:34:05.907Z,43.3
2018-09-20T22:36:05.651Z,43.3
2018-09-20T22:38:07.963Z,43.4
2018-09-20T22:40:05.620Z,43.4
2018-09-20T22:42:07.865Z,43.4
2018-09-20T22:44:05.565Z,43.4
2018-09-20T22:46:05.504Z,43.4
2018-09-20T22:48:10.791Z,43.4
2018-09-20T22:50:08.107Z,43.4
2018-09-20T22:52:05.756Z,43.4
2018-09-20T22:54:05.553Z,43.4
2018-09-20T22:56:05.258Z,43.4
2018-09-20T22:58:05.999Z,43.5
2018-09-20T23:00:05.843Z,43.3
2018-09-20T23:02:05.553Z,43.3
2018-09-20T23:04:05.445Z,43.3
2018-09-20T23:06:05.124Z,43.3
2018-09-20T23:08:08.373Z,43.4
2018-09-20T23:10:05.252Z,43.4
2018-09-20T23:12:05.939Z,43.3
2018-09-20T23:14:05.145Z,43.3
2018-09-20T23:16:05.853Z,43.3
2018-09-20T23:18:05.744Z,43.3
2018-09-20T23:20:05.418Z,43.2
2018-09-20T23:22:05.095Z,43.2
2018-09-20T23:24:05.790Z,43.3
2018-09-20T23:26:05.600Z,43.2
2018-09-20T23:28:10.449Z,43.2
2018-09-20T23:30:05.150Z,43.2
2018-09-20T23:32:08.415Z,43.1
2018-09-20T23:34:05.140Z,43.3
2018-09-20T23:36:05.857Z,43.3
2018-09-20T23:38:08.073Z,43.2
2018-09-20T23:40:06.043Z,43
2018-09-20T23:42:05.935Z,43.2
2018-09-20T23:44:05.604Z,43.3
2018-09-20T23:46:05.329Z,43.3
2018-09-20T23:48:05.077Z,42.9
2018-09-20T23:50:05.779Z,43.2
2018-09-20T23:52:05.991Z,43.2
2018-09-20T23:54:05.936Z,43.2
2018-09-20T23:56:05.519Z,43.1
2018-09-20T23:58:05.379Z,43.1
